CDT,Max TemperatureF,Mean TemperatureF,Min TemperatureF,Max Dew PointF,MeanDew PointF,Min DewpointF,Max Humidity, Mean Humidity, Min Humidity, Max Sea Level PressureIn, Mean Sea Level PressureIn, Min Sea Level PressureIn, Max VisibilityMiles, Mean VisibilityMiles, Min VisibilityMiles, Max Wind SpeedMPH, Mean Wind SpeedMPH, Max Gust SpeedMPH,PrecipitationIn, CloudCover, Events, WindDirDegrees
2013-3-1,37,35,33,34,31,30,100,85,75,30.11,30.08,30.05,10,9,4,12,5,16,0.00,8,Rain-Snow,295
2013-3-2,33,32,32,32,29,25,100,86,75,30.18,30.13,30.06,10,9,2,17,10,23,0.00,8,Rain-Snow,320
2013-3-3,42,35,28,27,21,14,86,60,31,30.21,30.15,30.11,10,10,10,15,8,21,0.00,2,Snow,322
2013-3-4,60,45,30,43,29,21,93,52,27,30.15,30.02,29.88,10,10,10,23,6,30,0.00,2,,175
2013-3-5,57,46,35,55,42,23,100,80,60,30.10,29.93,29.75,10,9,2,29,15,39,0.00,7,Rain,256
2013-3-6,42,36,30,28,26,21,87,68,57,30.31,30.23,30.10,10,10,10,25,15,34,0.00,6,,324
2013-3-7,50,39,28,32,29,25,93,74,47,30.39,30.33,30.30,10,10,10,8,3,,0.00,1,,22
2013-3-8,60,44,28,36,29,23,100,66,25,30.40,30.32,30.25,10,10,5,9,2,,0.00,0,,60
2013-3-9,68,50,33,37,33,28,100,55,23,30.26,30.17,30.08,10,10,4,14,4,20,0.00,1,,148
2013-3-10,71,58,46,54,41,32,82,47,29,30.08,29.95,29.85,10,10,7,24,12,37,0.00,3,Rain,164
2013-3-11,60,48,35,54,43,32,100,86,66,30.02,29.90,29.82,10,9,4,15,10,25,0.00,8,Rain,273
2013-3-12,55,42,30,32,31,30,100,72,38,30.20,30.11,30.02,10,10,7,14,5,17,0.00,0,,309
2013-3-13,50,41,32,32,26,19,100,60,30,30.41,30.30,30.18,10,10,10,22,7,29,0.00,0,,321
2013-3-14,53,38,24,36,24,18,86,57,24,30.45,30.37,30.25,10,10,10,10,2,,0.00,2,,83
2013-3-15,75,55,35,43,37,28,81,49,29,30.25,30.08,29.97,10,10,10,24,5,29,0.00,0,,234
2013-3-16,73,62,48,46,43,37,93,50,31,29.99,29.94,29.88,10,10,10,23,11,31,0.00,0,,237
2013-3-17,69,58,46,54,47,43,100,64,38,29.99,29.91,29.83,10,10,10,17,8,22,0.00,2,,206
2013-3-18,62,54,46,63,55,43,100,87,72,30.00,29.83,29.76,10,9,2,20,12,63,0.00,7,Rain,228
2013-3-19,59,46,33,45,32,19,100,61,23,30.19,30.12,30.01,10,9,0,13,6,20,0.00,0,Fog,9
2013-3-20,55,45,35,34,27,19,87,53,30,30.20,30.12,30.03,10,10,10,21,6,32,0.00,3,,321
2013-3-21,46,37,28,34,20,12,81,51,27,30.13,30.05,29.97,10,10,10,13,5,17,0.00,1,,11
2013-3-22,46,42,37,39,35,27,93,77,53,30.04,30.00,29.95,10,10,7,9,5,,0.00,8,Rain,135
2013-3-23,53,48,42,52,48,39,100,98,81,29.96,29.87,29.69,10,6,2,14,7,20,0.00,8,Rain,94
2013-3-24,57,47,37,55,44,27,100,83,54,29.85,29.66,29.54,10,9,2,30,10,44,0.00,8,Rain,244
2013-3-25,37,35,33,28,25,23,81,67,56,30.19,30.03,29.85,10,10,7,22,15,32,0.00,8,Snow,295
2013-3-26,41,36,32,28,27,25,87,71,57,30.38,30.29,30.18,10,10,10,16,10,20,0.00,7,,319
2013-3-27,53,40,26,34,28,23,100,69,33,30.43,30.36,30.31,10,10,4,13,2,16,0.00,0,,305
2013-3-28,60,45,30,36,31,25,100,64,25,30.40,30.33,30.28,10,10,10,9,1,,0.00,0,,27
2013-3-29,68,50,33,46,37,32,100,63,28,30.31,30.25,30.18,10,10,10,16,3,22,0.00,5,Rain,231
2013-3-30,62,50,39,55,49,37,100,89,59,30.20,30.11,29.99,10,8,3,12,2,16,0.00,6,Rain,185
2013-3-31,66,58,50,61,56,50,100,96,64,29.99,29.93,29.89,10,9,0,12,5,16,0.00,7,Fog-Rain,254